sensor_id;sensor_type;location;lat;lon;timestamp;P1;durP1;ratioP1;P2;durP2;ratioP2
13267;SDS011;6702;47.068;15.458;2023-05-15T00:01:27;20.73;;;19.13;;
13267;SDS011;6702;47.068;15.458;2023-05-15T00:04:31;11.63;;;10.40;;
13267;SDS011;6702;47.068;15.458;2023-05-15T00:07:36;11.57;;;10.43;;
13267;SDS011;6702;47.068;15.458;2023-05-15T00:10:39;11.37;;;10.30;;
13267;SDS011;6702;47.068;15.458;2023-05-15T00:14:00;9.80;;;8.97;;
13267;SDS011;6702;47.068;15.458;2023-05-15T00:17:03;9.80;;;8.90;;
13267;SDS011;6702;47.068;15.458;2023-05-15T00:20:07;11.47;;;10.47;;
13267;SDS011;6702;47.068;15.458;2023-05-15T00:23:11;10.97;;;9.97;;
13267;SDS011;6702;47.068;15.458;2023-05-15T00:26:15;10.33;;;9.43;;
13267;SDS011;6702;47.068;15.458;2023-05-15T00:29:18;10.93;;;9.13;;
13267;SDS011;6702;47.068;15.458;2023-05-15T00:32:21;9.97;;;8.97;;
13267;SDS011;6702;47.068;15.458;2023-05-15T00:35:24;8.93;;;7.87;;
13267;SDS011;6702;47.068;15.458;2023-05-15T00:38:29;8.63;;;7.83;;
13267;SDS011;6702;47.068;15.458;2023-05-15T00:41:33;5.93;;;5.40;;
13267;SDS011;6702;47.068;15.458;2023-05-15T00:44:38;5.23;;;4.50;;
13267;SDS011;6702;47.068;15.458;2023-05-15T00:47:42;5.97;;;5.50;;
13267;SDS011;6702;47.068;15.458;2023-05-15T00:50:47;6.03;;;5.60;;
13267;SDS011;6702;47.068;15.458;2023-05-15T00:53:53;6.43;;;4.20;;
13267;SDS011;6702;47.068;15.458;2023-05-15T00:56:57;4.63;;;4.23;;
13267;SDS011;6702;47.068;15.458;2023-05-15T01:00:01;4.50;;;4.20;;
13267;SDS011;6702;47.068;15.458;2023-05-15T01:03:07;3.50;;;3.17;;
13267;SDS011;6702;47.068;15.458;2023-05-15T01:06:10;3.33;;;3.13;;
13267;SDS011;6702;47.068;15.458;2023-05-15T01:09:15;3.67;;;3.47;;
13267;SDS011;6702;47.068;15.458;2023-05-15T01:12:20;4.30;;;4.00;;
13267;SDS011;6702;47.068;15.458;2023-05-15T01:15:27;4.30;;;4.00;;
13267;SDS011;6702;47.068;15.458;2023-05-15T01:18:30;4.60;;;4.30;;
13267;SDS011;6702;47.068;15.458;2023-05-15T01:25:07;4.10;;;3.80;;
13267;SDS011;6702;47.068;15.458;2023-05-15T01:28:35;3.70;;;3.40;;
13267;SDS011;6702;47.068;15.458;2023-05-15T01:31:42;3.20;;;3.00;;
13267;SDS011;6702;47.068;15.458;2023-05-15T01:34:52;3.33;;;3.03;;
13267;SDS011;6702;47.068;15.458;2023-05-15T01:38:01;3.33;;;3.13;;
13267;SDS011;6702;47.068;15.458;2023-05-15T01:41:14;2.93;;;2.73;;
13267;SDS011;6702;47.068;15.458;2023-05-15T01:44:25;3.10;;;2.90;;
13267;SDS011;6702;47.068;15.458;2023-05-15T01:47:32;3.10;;;2.90;;
13267;SDS011;6702;47.068;15.458;2023-05-15T01:50:38;2.97;;;2.77;;
13267;SDS011;6702;47.068;15.458;2023-05-15T01:53:42;3.07;;;2.87;;
13267;SDS011;6702;47.068;15.458;2023-05-15T01:56:46;2.80;;;2.60;;
13267;SDS011;6702;47.068;15.458;2023-05-15T01:59:52;3.17;;;2.90;;
13267;SDS011;6702;47.068;15.458;2023-05-15T02:02:57;2.43;;;2.23;;
13267;SDS011;6702;47.068;15.458;2023-05-15T02:06:01;2.50;;;2.30;;
13267;SDS011;6702;47.068;15.458;2023-05-15T02:09:06;2.83;;;2.63;;
13267;SDS011;6702;47.068;15.458;2023-05-15T02:12:10;2.80;;;2.60;;
13267;SDS011;6702;47.068;15.458;2023-05-15T02:15:16;3.53;;;3.23;;
13267;SDS011;6702;47.068;15.458;2023-05-15T02:18:20;3.77;;;2.80;;
13267;SDS011;6702;47.068;15.458;2023-05-15T02:21:24;3.87;;;3.47;;
13267;SDS011;6702;47.068;15.458;2023-05-15T02:24:27;4.10;;;2.77;;
13267;SDS011;6702;47.068;15.458;2023-05-15T02:27:32;3.10;;;2.90;;
13267;SDS011;6702;47.068;15.458;2023-05-15T02:30:42;2.83;;;2.63;;
13267;SDS011;6702;47.068;15.458;2023-05-15T02:33:58;5.63;;;3.20;;
13267;SDS011;6702;47.068;15.458;2023-05-15T02:37:12;4.00;;;3.17;;
13267;SDS011;6702;47.068;15.458;2023-05-15T02:40:18;3.27;;;3.03;;
13267;SDS011;6702;47.068;15.458;2023-05-15T02:43:24;3.60;;;2.90;;
13267;SDS011;6702;47.068;15.458;2023-05-15T02:46:29;3.93;;;3.60;;
13267;SDS011;6702;47.068;15.458;2023-05-15T02:49:33;4.17;;;3.87;;
13267;SDS011;6702;47.068;15.458;2023-05-15T02:52:37;3.03;;;2.83;;
13267;SDS011;6702;47.068;15.458;2023-05-15T02:55:40;3.57;;;3.27;;
13267;SDS011;6702;47.068;15.458;2023-05-15T02:58:44;3.50;;;3.20;;
13267;SDS011;6702;47.068;15.458;2023-05-15T03:01:48;4.40;;;3.90;;
13267;SDS011;6702;47.068;15.458;2023-05-15T03:04:52;3.63;;;3.33;;
13267;SDS011;6702;47.068;15.458;2023-05-15T03:07:56;3.23;;;3.03;;
13267;SDS011;6702;47.068;15.458;2023-05-15T03:10:59;9.07;;;8.17;;
13267;SDS011;6702;47.068;15.458;2023-05-15T03:14:02;10.97;;;9.73;;
13267;SDS011;6702;47.068;15.458;2023-05-15T03:17:07;10.90;;;9.90;;
13267;SDS011;6702;47.068;15.458;2023-05-15T03:20:10;9.03;;;7.73;;
13267;SDS011;6702;47.068;15.458;2023-05-15T03:23:16;16.67;;;9.90;;
13267;SDS011;6702;47.068;15.458;2023-05-15T03:26:19;11.77;;;10.57;;
13267;SDS011;6702;47.068;15.458;2023-05-15T03:29:23;20.30;;;11.40;;
13267;SDS011;6702;47.068;15.458;2023-05-15T03:32:27;10.70;;;9.60;;
13267;SDS011;6702;47.068;15.458;2023-05-15T03:35:31;14.23;;;10.40;;
13267;SDS011;6702;47.068;15.458;2023-05-15T03:38:34;11.80;;;10.43;;
13267;SDS011;6702;47.068;15.458;2023-05-15T03:41:37;12.27;;;9.97;;
13267;SDS011;6702;47.068;15.458;2023-05-15T03:44:40;10.43;;;9.43;;
13267;SDS011;6702;47.068;15.458;2023-05-15T03:47:45;9.90;;;9.00;;
13267;SDS011;6702;47.068;15.458;2023-05-15T03:50:48;12.93;;;11.67;;
13267;SDS011;6702;47.068;15.458;2023-05-15T03:53:53;9.10;;;8.20;;
13267;SDS011;6702;47.068;15.458;2023-05-15T03:56:56;10.13;;;9.00;;
13267;SDS011;6702;47.068;15.458;2023-05-15T04:00:00;10.53;;;9.37;;
13267;SDS011;6702;47.068;15.458;2023-05-15T04:03:09;9.73;;;8.87;;
13267;SDS011;6702;47.068;15.458;2023-05-15T04:06:12;9.20;;;8.30;;
13267;SDS011;6702;47.068;15.458;2023-05-15T04:09:15;8.10;;;7.33;;
13267;SDS011;6702;47.068;15.458;2023-05-15T04:12:18;9.37;;;8.47;;
13267;SDS011;6702;47.068;15.458;2023-05-15T04:15:23;10.10;;;6.47;;
13267;SDS011;6702;47.068;15.458;2023-05-15T04:18:30;7.40;;;6.70;;
13267;SDS011;6702;47.068;15.458;2023-05-15T04:21:33;7.90;;;6.77;;
13267;SDS011;6702;47.068;15.458;2023-05-15T04:24:36;7.90;;;7.20;;
13267;SDS011;6702;47.068;15.458;2023-05-15T04:27:39;6.93;;;6.23;;
13267;SDS011;6702;47.068;15.458;2023-05-15T04:30:44;8.70;;;7.90;;
13267;SDS011;6702;47.068;15.458;2023-05-15T04:33:48;8.23;;;7.53;;
13267;SDS011;6702;47.068;15.458;2023-05-15T04:36:51;7.80;;;7.10;;
13267;SDS011;6702;47.068;15.458;2023-05-15T04:39:54;8.30;;;7.60;;
13267;SDS011;6702;47.068;15.458;2023-05-15T04:42:57;6.77;;;6.17;;
13267;SDS011;6702;47.068;15.458;2023-05-15T04:46:01;13.90;;;8.07;;
13267;SDS011;6702;47.068;15.458;2023-05-15T04:49:05;8.87;;;7.57;;
13267;SDS011;6702;47.068;15.458;2023-05-15T04:52:08;8.83;;;8.03;;
13267;SDS011;6702;47.068;15.458;2023-05-15T04:55:12;7.00;;;6.30;;
13267;SDS011;6702;47.068;15.458;2023-05-15T04:58:15;6.50;;;6.00;;
13267;SDS011;6702;47.068;15.458;2023-05-15T05:01:18;5.40;;;5.00;;
13267;SDS011;6702;47.068;15.458;2023-05-15T05:04:26;5.40;;;4.90;;
13267;SDS011;6702;47.068;15.458;2023-05-15T05:07:29;4.40;;;4.00;;
13267;SDS011;6702;47.068;15.458;2023-05-15T05:10:32;4.33;;;4.00;;
13267;SDS011;6702;47.068;15.458;2023-05-15T05:13:35;4.83;;;4.53;;
13267;SDS011;6702;47.068;15.458;2023-05-15T05:16:38;5.07;;;4.10;;
13267;SDS011;6702;47.068;15.458;2023-05-15T05:19:43;6.63;;;4.13;;
13267;SDS011;6702;47.068;15.458;2023-05-15T05:22:46;4.40;;;4.07;;
13267;SDS011;6702;47.068;15.458;2023-05-15T05:25:49;3.60;;;3.30;;
13267;SDS011;6702;47.068;15.458;2023-05-15T05:28:55;3.33;;;3.13;;
13267;SDS011;6702;47.068;15.458;2023-05-15T05:31:58;3.33;;;3.07;;
13267;SDS011;6702;47.068;15.458;2023-05-15T05:35:04;4.17;;;3.07;;
13267;SDS011;6702;47.068;15.458;2023-05-15T05:38:07;3.60;;;3.30;;
13267;SDS011;6702;47.068;15.458;2023-05-15T05:41:10;4.00;;;3.27;;
13267;SDS011;6702;47.068;15.458;2023-05-15T05:44:13;4.93;;;2.63;;
13267;SDS011;6702;47.068;15.458;2023-05-15T05:47:16;3.07;;;2.80;;
13267;SDS011;6702;47.068;15.458;2023-05-15T05:50:21;3.97;;;3.10;;
13267;SDS011;6702;47.068;15.458;2023-05-15T05:53:25;3.90;;;2.83;;
13267;SDS011;6702;47.068;15.458;2023-05-15T05:56:28;3.47;;;3.17;;
13267;SDS011;6702;47.068;15.458;2023-05-15T05:59:31;2.73;;;2.50;;
13267;SDS011;6702;47.068;15.458;2023-05-15T06:02:34;3.57;;;3.10;;
13267;SDS011;6702;47.068;15.458;2023-05-15T06:05:40;2.97;;;2.67;;
13267;SDS011;6702;47.068;15.458;2023-05-15T06:08:43;4.80;;;3.03;;
13267;SDS011;6702;47.068;15.458;2023-05-15T06:11:46;3.70;;;2.97;;
13267;SDS011;6702;47.068;15.458;2023-05-15T06:14:49;2.63;;;2.27;;
13267;SDS011;6702;47.068;15.458;2023-05-15T06:17:52;3.87;;;2.83;;
13267;SDS011;6702;47.068;15.458;2023-05-15T06:20:57;3.87;;;3.37;;
13267;SDS011;6702;47.068;15.458;2023-05-15T06:24:00;3.60;;;2.80;;
13267;SDS011;6702;47.068;15.458;2023-05-15T06:27:04;2.77;;;2.57;;
13267;SDS011;6702;47.068;15.458;2023-05-15T06:30:07;3.87;;;3.07;;
13267;SDS011;6702;47.068;15.458;2023-05-15T06:33:11;3.50;;;2.70;;
13267;SDS011;6702;47.068;15.458;2023-05-15T06:36:16;3.47;;;3.17;;
13267;SDS011;6702;47.068;15.458;2023-05-15T06:39:19;3.53;;;3.23;;
13267;SDS011;6702;47.068;15.458;2023-05-15T06:42:22;3.73;;;2.60;;
13267;SDS011;6702;47.068;15.458;2023-05-15T06:45:25;3.60;;;3.27;;
13267;SDS011;6702;47.068;15.458;2023-05-15T06:48:29;3.40;;;3.10;;
13267;SDS011;6702;47.068;15.458;2023-05-15T06:51:33;5.80;;;3.90;;
13267;SDS011;6702;47.068;15.458;2023-05-15T06:54:37;4.50;;;4.10;;
13267;SDS011;6702;47.068;15.458;2023-05-15T06:57:40;6.27;;;4.30;;
13267;SDS011;6702;47.068;15.458;2023-05-15T07:00:43;4.03;;;3.73;;
13267;SDS011;6702;47.068;15.458;2023-05-15T07:03:46;4.97;;;4.47;;
13267;SDS011;6702;47.068;15.458;2023-05-15T07:06:51;6.93;;;5.37;;
13267;SDS011;6702;47.068;15.458;2023-05-15T07:09:54;5.90;;;5.30;;
13267;SDS011;6702;47.068;15.458;2023-05-15T07:12:57;4.97;;;4.67;;
13267;SDS011;6702;47.068;15.458;2023-05-15T07:16:01;5.00;;;4.60;;
13267;SDS011;6702;47.068;15.458;2023-05-15T07:19:06;4.57;;;4.17;;
13267;SDS011;6702;47.068;15.458;2023-05-15T07:22:12;4.50;;;4.10;;
13267;SDS011;6702;47.068;15.458;2023-05-15T07:25:15;4.75;;;4.35;;
13267;SDS011;6702;47.068;15.458;2023-05-15T07:28:18;4.95;;;4.50;;
13267;SDS011;6702;47.068;15.458;2023-05-15T07:31:21;3.78;;;3.38;;
13267;SDS011;6702;47.068;15.458;2023-05-15T07:34:25;4.07;;;3.67;;
13267;SDS011;6702;47.068;15.458;2023-05-15T07:37:29;3.05;;;2.55;;
13267;SDS011;6702;47.068;15.458;2023-05-15T07:40:32;2.70;;;2.10;;
13267;SDS011;6702;47.068;15.458;2023-05-15T07:43:36;1.25;;;1.10;;
13267;SDS011;6702;47.068;15.458;2023-05-15T07:46:39;1.35;;;0.95;;
13267;SDS011;6702;47.068;15.458;2023-05-15T07:49:42;1.60;;;1.20;;
13267;SDS011;6702;47.068;15.458;2023-05-15T07:52:46;2.13;;;1.45;;
13267;SDS011;6702;47.068;15.458;2023-05-15T07:55:49;1.92;;;0.88;;
13267;SDS011;6702;47.068;15.458;2023-05-15T07:58:53;2.35;;;1.45;;
13267;SDS011;6702;47.068;15.458;2023-05-15T08:01:56;2.15;;;1.40;;
13267;SDS011;6702;47.068;15.458;2023-05-15T08:04:59;1.13;;;0.95;;
13267;SDS011;6702;47.068;15.458;2023-05-15T08:08:04;1.50;;;1.00;;
13267;SDS011;6702;47.068;15.458;2023-05-15T08:11:07;1.00;;;0.90;;
13267;SDS011;6702;47.068;15.458;2023-05-15T08:14:10;1.00;;;0.90;;
13267;SDS011;6702;47.068;15.458;2023-05-15T08:17:14;1.00;;;0.70;;
13267;SDS011;6702;47.068;15.458;2023-05-15T08:20:17;1.23;;;0.75;;
13267;SDS011;6702;47.068;15.458;2023-05-15T08:23:21;1.33;;;0.80;;
13267;SDS011;6702;47.068;15.458;2023-05-15T08:26:25;2.97;;;2.78;;
13267;SDS011;6702;47.068;15.458;2023-05-15T08:29:28;3.42;;;3.13;;
13267;SDS011;6702;47.068;15.458;2023-05-15T08:32:31;3.72;;;3.13;;
13267;SDS011;6702;47.068;15.458;2023-05-15T08:35:34;3.05;;;2.42;;
13267;SDS011;6702;47.068;15.458;2023-05-15T08:38:39;3.15;;;2.33;;
13267;SDS011;6702;47.068;15.458;2023-05-15T08:41:45;6.63;;;2.30;;
13267;SDS011;6702;47.068;15.458;2023-05-15T08:44:52;2.30;;;2.10;;
13267;SDS011;6702;47.068;15.458;2023-05-15T08:47:57;0.80;;;0.40;;
13267;SDS011;6702;47.068;15.458;2023-05-15T08:51:02;1.43;;;1.00;;
13267;SDS011;6702;47.068;15.458;2023-05-15T08:54:07;2.70;;;2.50;;
13267;SDS011;6702;47.068;15.458;2023-05-15T08:57:10;2.23;;;1.50;;
13267;SDS011;6702;47.068;15.458;2023-05-15T09:00:14;1.40;;;0.80;;
13267;SDS011;6702;47.068;15.458;2023-05-15T09:03:21;0.57;;;0.30;;
13267;SDS011;6702;47.068;15.458;2023-05-15T09:06:24;1.03;;;0.40;;
13267;SDS011;6702;47.068;15.458;2023-05-15T09:09:30;0.90;;;0.40;;
13267;SDS011;6702;47.068;15.458;2023-05-15T09:12:34;1.13;;;0.60;;
13267;SDS011;6702;47.068;15.458;2023-05-15T09:15:44;0.70;;;0.50;;
13267;SDS011;6702;47.068;15.458;2023-05-15T09:18:47;0.70;;;0.43;;
13267;SDS011;6702;47.068;15.458;2023-05-15T09:21:51;0.70;;;0.33;;
13267;SDS011;6702;47.068;15.458;2023-05-15T09:24:56;1.33;;;0.30;;
13267;SDS011;6702;47.068;15.458;2023-05-15T09:27:59;0.87;;;0.40;;
13267;SDS011;6702;47.068;15.458;2023-05-15T09:31:03;0.70;;;0.50;;
13267;SDS011;6702;47.068;15.458;2023-05-15T09:34:06;1.07;;;0.30;;
13267;SDS011;6702;47.068;15.458;2023-05-15T09:37:11;0.90;;;0.37;;
13267;SDS011;6702;47.068;15.458;2023-05-15T09:40:32;0.60;;;0.40;;
13267;SDS011;6702;47.068;15.458;2023-05-15T09:43:36;0.83;;;0.50;;
13267;SDS011;6702;47.068;15.458;2023-05-15T09:46:40;0.60;;;0.40;;
13267;SDS011;6702;47.068;15.458;2023-05-15T09:49:44;2.07;;;0.40;;
13267;SDS011;6702;47.068;15.458;2023-05-15T09:52:48;0.90;;;0.30;;
13267;SDS011;6702;47.068;15.458;2023-05-15T09:55:53;1.23;;;0.37;;
13267;SDS011;6702;47.068;15.458;2023-05-15T09:58:57;0.70;;;0.30;;
13267;SDS011;6702;47.068;15.458;2023-05-15T10:02:00;0.87;;;0.40;;
13267;SDS011;6702;47.068;15.458;2023-05-15T10:05:03;0.77;;;0.40;;
13267;SDS011;6702;47.068;15.458;2023-05-15T10:08:07;0.67;;;0.30;;
13267;SDS011;6702;47.068;15.458;2023-05-15T10:11:12;0.70;;;0.30;;
13267;SDS011;6702;47.068;15.458;2023-05-15T10:14:15;0.77;;;0.30;;
13267;SDS011;6702;47.068;15.458;2023-05-15T10:17:19;1.53;;;0.53;;
13267;SDS011;6702;47.068;15.458;2023-05-15T10:20:24;0.70;;;0.47;;
13267;SDS011;6702;47.068;15.458;2023-05-15T10:23:27;1.67;;;0.40;;
13267;SDS011;6702;47.068;15.458;2023-05-15T10:26:36;0.57;;;0.30;;
13267;SDS011;6702;47.068;15.458;2023-05-15T10:29:40;0.60;;;0.20;;
13267;SDS011;6702;47.068;15.458;2023-05-15T10:32:44;0.70;;;0.37;;
13267;SDS011;6702;47.068;15.458;2023-05-15T10:35:48;1.20;;;0.40;;
13267;SDS011;6702;47.068;15.458;2023-05-15T10:38:52;0.60;;;0.30;;
13267;SDS011;6702;47.068;15.458;2023-05-15T10:41:57;1.13;;;0.40;;
13267;SDS011;6702;47.068;15.458;2023-05-15T10:45:01;0.60;;;0.40;;
13267;SDS011;6702;47.068;15.458;2023-05-15T10:48:05;1.00;;;0.67;;
13267;SDS011;6702;47.068;15.458;2023-05-15T10:51:13;1.23;;;0.60;;
13267;SDS011;6702;47.068;15.458;2023-05-15T10:54:17;0.90;;;0.60;;
13267;SDS011;6702;47.068;15.458;2023-05-15T10:57:24;1.43;;;0.63;;
13267;SDS011;6702;47.068;15.458;2023-05-15T11:00:31;2.20;;;0.30;;
13267;SDS011;6702;47.068;15.458;2023-05-15T11:03:35;0.70;;;0.30;;
13267;SDS011;6702;47.068;15.458;2023-05-15T11:06:49;0.73;;;0.30;;
13267;SDS011;6702;47.068;15.458;2023-05-15T11:17:15;0.60;;;0.27;;
13267;SDS011;6702;47.068;15.458;2023-05-15T11:20:19;1.10;;;0.20;;
13267;SDS011;6702;47.068;15.458;2023-05-15T11:23:37;0.70;;;0.37;;
13267;SDS011;6702;47.068;15.458;2023-05-15T11:26:42;0.97;;;0.23;;
13267;SDS011;6702;47.068;15.458;2023-05-15T11:33:12;0.80;;;0.30;;
13267;SDS011;6702;47.068;15.458;2023-05-15T11:36:18;0.60;;;0.20;;
13267;SDS011;6702;47.068;15.458;2023-05-15T11:39:26;0.50;;;0.20;;
13267;SDS011;6702;47.068;15.458;2023-05-15T11:42:29;0.60;;;0.20;;
13267;SDS011;6702;47.068;15.458;2023-05-15T11:45:36;0.77;;;0.40;;
13267;SDS011;6702;47.068;15.458;2023-05-15T11:48:41;0.70;;;0.30;;
13267;SDS011;6702;47.068;15.458;2023-05-15T11:51:48;2.90;;;0.40;;
13267;SDS011;6702;47.068;15.458;2023-05-15T11:54:52;1.57;;;0.83;;
13267;SDS011;6702;47.068;15.458;2023-05-15T11:57:57;0.80;;;0.33;;
13267;SDS011;6702;47.068;15.458;2023-05-15T12:01:02;0.60;;;0.30;;
13267;SDS011;6702;47.068;15.458;2023-05-15T12:04:10;0.70;;;0.40;;
13267;SDS011;6702;47.068;15.458;2023-05-15T12:07:15;0.60;;;0.33;;
13267;SDS011;6702;47.068;15.458;2023-05-15T12:10:19;0.70;;;0.53;;
13267;SDS011;6702;47.068;15.458;2023-05-15T12:13:23;1.30;;;0.33;;
13267;SDS011;6702;47.068;15.458;2023-05-15T12:16:28;0.70;;;0.30;;
13267;SDS011;6702;47.068;15.458;2023-05-15T12:19:31;1.20;;;0.37;;
13267;SDS011;6702;47.068;15.458;2023-05-15T12:22:36;0.50;;;0.20;;
13267;SDS011;6702;47.068;15.458;2023-05-15T12:25:40;0.83;;;0.20;;
13267;SDS011;6702;47.068;15.458;2023-05-15T12:28:44;0.70;;;0.47;;
13267;SDS011;6702;47.068;15.458;2023-05-15T12:31:49;3.70;;;0.40;;
13267;SDS011;6702;47.068;15.458;2023-05-15T12:34:54;0.70;;;0.20;;
13267;SDS011;6702;47.068;15.458;2023-05-15T12:37:58;0.70;;;0.27;;
13267;SDS011;6702;47.068;15.458;2023-05-15T12:41:01;0.60;;;0.37;;
13267;SDS011;6702;47.068;15.458;2023-05-15T12:44:04;0.60;;;0.30;;
13267;SDS011;6702;47.068;15.458;2023-05-15T12:47:09;0.63;;;0.23;;
13267;SDS011;6702;47.068;15.458;2023-05-15T12:50:15;1.40;;;0.70;;
13267;SDS011;6702;47.068;15.458;2023-05-15T12:53:19;0.70;;;0.20;;
13267;SDS011;6702;47.068;15.458;2023-05-15T12:56:23;0.77;;;0.40;;
13267;SDS011;6702;47.068;15.458;2023-05-15T12:59:26;0.70;;;0.20;;
13267;SDS011;6702;47.068;15.458;2023-05-15T13:02:32;0.53;;;0.20;;
13267;SDS011;6702;47.068;15.458;2023-05-15T13:05:35;1.00;;;0.50;;
13267;SDS011;6702;47.068;15.458;2023-05-15T13:08:40;0.50;;;0.20;;
13267;SDS011;6702;47.068;15.458;2023-05-15T13:11:45;0.60;;;0.30;;
13267;SDS011;6702;47.068;15.458;2023-05-15T13:14:48;1.50;;;0.20;;
13267;SDS011;6702;47.068;15.458;2023-05-15T13:17:53;0.60;;;0.30;;
13267;SDS011;6702;47.068;15.458;2023-05-15T13:21:00;1.03;;;0.50;;
13267;SDS011;6702;47.068;15.458;2023-05-15T13:24:04;0.90;;;0.30;;
13267;SDS011;6702;47.068;15.458;2023-05-15T13:27:10;0.80;;;0.40;;
13267;SDS011;6702;47.068;15.458;2023-05-15T13:30:13;0.70;;;0.30;;
13267;SDS011;6702;47.068;15.458;2023-05-15T13:33:18;0.70;;;0.30;;
13267;SDS011;6702;47.068;15.458;2023-05-15T13:36:21;2.40;;;0.30;;
13267;SDS011;6702;47.068;15.458;2023-05-15T13:39:25;1.30;;;0.30;;
13267;SDS011;6702;47.068;15.458;2023-05-15T13:42:28;0.70;;;0.30;;
13267;SDS011;6702;47.068;15.458;2023-05-15T13:45:31;0.60;;;0.30;;
13267;SDS011;6702;47.068;15.458;2023-05-15T13:48:36;0.60;;;0.20;;
13267;SDS011;6702;47.068;15.458;2023-05-15T13:51:39;0.93;;;0.33;;
13267;SDS011;6702;47.068;15.458;2023-05-15T13:54:42;1.53;;;0.40;;
13267;SDS011;6702;47.068;15.458;2023-05-15T13:57:46;0.93;;;0.53;;
13267;SDS011;6702;47.068;15.458;2023-05-15T14:00:49;1.17;;;0.50;;
13267;SDS011;6702;47.068;15.458;2023-05-15T14:03:53;1.73;;;0.40;;
13267;SDS011;6702;47.068;15.458;2023-05-15T14:06:57;1.20;;;0.70;;
13267;SDS011;6702;47.068;15.458;2023-05-15T14:10:00;0.60;;;0.40;;
13267;SDS011;6702;47.068;15.458;2023-05-15T14:13:04;0.60;;;0.40;;
13267;SDS011;6702;47.068;15.458;2023-05-15T14:16:07;0.80;;;0.60;;
13267;SDS011;6702;47.068;15.458;2023-05-15T14:19:11;1.03;;;0.43;;
13267;SDS011;6702;47.068;15.458;2023-05-15T14:22:15;2.20;;;0.50;;
13267;SDS011;6702;47.068;15.458;2023-05-15T14:25:18;0.53;;;0.23;;
13267;SDS011;6702;47.068;15.458;2023-05-15T14:28:21;0.50;;;0.30;;
13267;SDS011;6702;47.068;15.458;2023-05-15T14:31:24;0.77;;;0.43;;
13267;SDS011;6702;47.068;15.458;2023-05-15T14:34:29;1.37;;;0.20;;
13267;SDS011;6702;47.068;15.458;2023-05-15T14:37:32;0.60;;;0.37;;
13267;SDS011;6702;47.068;15.458;2023-05-15T14:40:36;0.70;;;0.40;;
13267;SDS011;6702;47.068;15.458;2023-05-15T14:43:39;0.90;;;0.60;;
13267;SDS011;6702;47.068;15.458;2023-05-15T14:46:42;1.27;;;0.50;;
13267;SDS011;6702;47.068;15.458;2023-05-15T14:49:47;2.13;;;0.83;;
13267;SDS011;6702;47.068;15.458;2023-05-15T14:52:50;2.30;;;0.67;;
13267;SDS011;6702;47.068;15.458;2023-05-15T14:55:53;1.00;;;0.60;;
13267;SDS011;6702;47.068;15.458;2023-05-15T14:58:58;1.47;;;0.80;;
13267;SDS011;6702;47.068;15.458;2023-05-15T15:02:01;1.23;;;0.40;;
13267;SDS011;6702;47.068;15.458;2023-05-15T15:05:07;0.60;;;0.40;;
13267;SDS011;6702;47.068;15.458;2023-05-15T15:08:10;1.30;;;0.57;;
13267;SDS011;6702;47.068;15.458;2023-05-15T15:11:14;0.60;;;0.40;;
13267;SDS011;6702;47.068;15.458;2023-05-15T15:14:17;1.00;;;0.40;;
13267;SDS011;6702;47.068;15.458;2023-05-15T15:17:20;0.70;;;0.30;;
13267;SDS011;6702;47.068;15.458;2023-05-15T15:20:25;0.60;;;0.30;;
13267;SDS011;6702;47.068;15.458;2023-05-15T15:23:29;2.33;;;1.00;;
13267;SDS011;6702;47.068;15.458;2023-05-15T15:26:32;0.90;;;0.73;;
13267;SDS011;6702;47.068;15.458;2023-05-15T15:29:35;1.90;;;0.73;;
13267;SDS011;6702;47.068;15.458;2023-05-15T15:32:39;0.90;;;0.70;;
13267;SDS011;6702;47.068;15.458;2023-05-15T15:35:45;1.60;;;0.80;;
13267;SDS011;6702;47.068;15.458;2023-05-15T15:38:48;1.30;;;0.40;;
13267;SDS011;6702;47.068;15.458;2023-05-15T15:41:52;3.03;;;0.70;;
13267;SDS011;6702;47.068;15.458;2023-05-15T15:44:55;1.23;;;0.60;;
13267;SDS011;6702;47.068;15.458;2023-05-15T15:47:58;1.47;;;0.70;;
13267;SDS011;6702;47.068;15.458;2023-05-15T15:51:03;1.20;;;0.80;;
13267;SDS011;6702;47.068;15.458;2023-05-15T15:54:06;2.80;;;0.47;;
13267;SDS011;6702;47.068;15.458;2023-05-15T15:57:09;1.10;;;0.60;;
13267;SDS011;6702;47.068;15.458;2023-05-15T16:00:13;1.63;;;0.60;;
13267;SDS011;6702;47.068;15.458;2023-05-15T16:03:17;0.90;;;0.70;;
13267;SDS011;6702;47.068;15.458;2023-05-15T16:06:21;2.10;;;1.00;;
13267;SDS011;6702;47.068;15.458;2023-05-15T16:09:24;1.53;;;0.70;;
13267;SDS011;6702;47.068;15.458;2023-05-15T16:12:28;1.70;;;0.70;;
13267;SDS011;6702;47.068;15.458;2023-05-15T16:15:31;1.57;;;0.83;;
13267;SDS011;6702;47.068;15.458;2023-05-15T16:18:34;1.80;;;0.83;;
13267;SDS011;6702;47.068;15.458;2023-05-15T16:21:39;1.43;;;0.60;;
13267;SDS011;6702;47.068;15.458;2023-05-15T16:24:42;1.03;;;0.83;;
13267;SDS011;6702;47.068;15.458;2023-05-15T16:27:45;2.03;;;0.80;;
13267;SDS011;6702;47.068;15.458;2023-05-15T16:30:48;5.43;;;1.20;;
13267;SDS011;6702;47.068;15.458;2023-05-15T16:33:52;1.03;;;0.73;;
13267;SDS011;6702;47.068;15.458;2023-05-15T16:36:57;0.80;;;0.67;;
13267;SDS011;6702;47.068;15.458;2023-05-15T16:40:00;1.50;;;0.87;;
13267;SDS011;6702;47.068;15.458;2023-05-15T16:43:04;1.23;;;0.80;;
13267;SDS011;6702;47.068;15.458;2023-05-15T16:46:10;1.03;;;0.60;;
13267;SDS011;6702;47.068;15.458;2023-05-15T16:49:13;0.90;;;0.80;;
13267;SDS011;6702;47.068;15.458;2023-05-15T16:52:18;1.53;;;0.70;;
13267;SDS011;6702;47.068;15.458;2023-05-15T16:55:21;1.80;;;0.50;;
13267;SDS011;6702;47.068;15.458;2023-05-15T16:58:24;1.80;;;1.20;;
13267;SDS011;6702;47.068;15.458;2023-05-15T17:01:28;0.70;;;0.70;;
13267;SDS011;6702;47.068;15.458;2023-05-15T17:04:31;1.10;;;0.77;;
13267;SDS011;6702;47.068;15.458;2023-05-15T17:07:37;1.17;;;0.70;;
13267;SDS011;6702;47.068;15.458;2023-05-15T17:10:40;0.60;;;0.60;;
13267;SDS011;6702;47.068;15.458;2023-05-15T17:13:43;1.33;;;0.90;;
13267;SDS011;6702;47.068;15.458;2023-05-15T17:16:46;2.30;;;1.10;;
13267;SDS011;6702;47.068;15.458;2023-05-15T17:19:50;1.43;;;0.53;;
13267;SDS011;6702;47.068;15.458;2023-05-15T17:22:54;1.40;;;0.47;;
13267;SDS011;6702;47.068;15.458;2023-05-15T17:25:58;1.97;;;0.67;;
13267;SDS011;6702;47.068;15.458;2023-05-15T17:29:01;2.50;;;0.77;;
13267;SDS011;6702;47.068;15.458;2023-05-15T17:32:06;1.10;;;0.80;;
13267;SDS011;6702;47.068;15.458;2023-05-15T17:35:09;0.90;;;0.70;;
13267;SDS011;6702;47.068;15.458;2023-05-15T17:38:14;1.27;;;0.70;;
13267;SDS011;6702;47.068;15.458;2023-05-15T17:41:17;1.03;;;0.60;;
13267;SDS011;6702;47.068;15.458;2023-05-15T17:44:22;1.17;;;0.73;;
13267;SDS011;6702;47.068;15.458;2023-05-15T17:47:28;2.67;;;0.50;;
13267;SDS011;6702;47.068;15.458;2023-05-15T17:50:31;2.10;;;0.50;;
13267;SDS011;6702;47.068;15.458;2023-05-15T17:53:39;1.63;;;1.10;;
13267;SDS011;6702;47.068;15.458;2023-05-15T17:56:42;1.23;;;0.90;;
13267;SDS011;6702;47.068;15.458;2023-05-15T17:59:46;1.10;;;1.00;;
13267;SDS011;6702;47.068;15.458;2023-05-15T18:02:49;1.17;;;1.00;;
13267;SDS011;6702;47.068;15.458;2023-05-15T18:05:52;0.70;;;0.60;;
13267;SDS011;6702;47.068;15.458;2023-05-15T18:08:57;0.83;;;0.60;;
13267;SDS011;6702;47.068;15.458;2023-05-15T18:12:01;0.80;;;0.70;;
13267;SDS011;6702;47.068;15.458;2023-05-15T18:15:06;1.13;;;1.00;;
13267;SDS011;6702;47.068;15.458;2023-05-15T18:18:09;2.70;;;1.00;;
13267;SDS011;6702;47.068;15.458;2023-05-15T18:21:12;1.27;;;1.07;;
13267;SDS011;6702;47.068;15.458;2023-05-15T18:24:17;1.37;;;0.80;;
13267;SDS011;6702;47.068;15.458;2023-05-15T18:27:21;1.87;;;1.10;;
13267;SDS011;6702;47.068;15.458;2023-05-15T18:30:24;1.47;;;0.90;;
13267;SDS011;6702;47.068;15.458;2023-05-15T18:33:27;1.10;;;0.97;;
13267;SDS011;6702;47.068;15.458;2023-05-15T18:36:30;1.20;;;0.90;;
13267;SDS011;6702;47.068;15.458;2023-05-15T18:39:36;1.60;;;0.80;;
13267;SDS011;6702;47.068;15.458;2023-05-15T18:42:40;0.77;;;0.70;;